Time;durP1;ratioP1;P1;durP2;ratioP2;P2;SDS_P1;SDS_P2;PMS_P1;PMS_P2;Temp;Humidity;BMP_temperature;BMP_pressure;BME280_temperature;BME280_humidity;BME280_pressure;Samples;Min_cycle;Max_cycle;Signal;HPM_P1;HPM_P2
2022/11/10 00:00:57;;;;;;;40.60;24.70;;;;;;;5.83;87.87;100245.34;106571;1305;22151;-61
2022/11/10 00:03:42;;;;;;;38.60;22.50;;;;;;;5.81;87.88;100242.30;106445;1303;138363;-61
2022/11/10 00:06:28;;;;;;;38.20;23.10;;;;;;;5.80;87.87;100242.59;106568;1298;22129;-61
2022/11/10 00:09:14;;;;;;;38.20;22.70;;;;;;;5.79;87.88;100245.84;106466;1297;138299;-61
2022/11/10 00:11:59;;;;;;;40.60;23.20;;;;;;;5.80;88.02;100244.50;106573;1288;22238;-61
2022/11/10 00:17:49;;;;;;;34.70;22.30;;;;;;;5.77;88.13;100247.92;106600;1305;22870;-61
2022/11/10 00:20:34;;;;;;;31.30;21.10;;;;;;;5.77;88.27;100243.17;106424;1306;140079;-61
2022/11/10 00:23:19;;;;;;;33.60;20.70;;;;;;;5.76;88.09;100243.15;106583;1304;22174;-61
2022/11/10 00:26:13;;;;;;;33.40;20.90;;;;;;;5.75;88.11;100239.95;106622;1306;22112;-61
2022/11/10 00:28:59;;;;;;;36.10;21.60;;;;;;;5.74;88.22;100236.96;106518;1306;22920;-61
2022/11/10 00:31:44;;;;;;;35.60;20.70;;;;;;;5.73;88.36;100238.00;103791;1290;25191;-60
2022/11/10 00:34:30;;;;;;;37.20;21.40;;;;;;;5.72;88.51;100232.72;101971;1282;138632;-60
2022/11/10 00:37:15;;;;;;;32.80;21.30;;;;;;;5.67;88.63;100227.71;102195;1292;27688;-59
2022/11/10 00:40:01;;;;;;;33.30;20.80;;;;;;;5.69;88.72;100225.73;102169;1299;139097;-59
2022/11/10 00:42:46;;;;;;;36.60;20.90;;;;;;;5.66;88.46;100220.02;102273;1297;22479;-61
2022/11/10 00:45:31;;;;;;;38.40;24.00;;;;;;;5.60;88.80;100219.38;102280;1298;139069;-60
2022/11/10 00:48:17;;;;;;;34.50;21.50;;;;;;;5.57;88.88;100215.51;102368;1298;26601;-61
2022/11/10 00:51:03;;;;;;;31.30;20.30;;;;;;;5.55;88.85;100217.65;102179;1298;139071;-60
2022/11/10 00:53:48;;;;;;;33.80;20.10;;;;;;;5.52;89.21;100216.98;102119;1298;22619;-61
2022/11/10 00:56:34;;;;;;;34.30;21.50;;;;;;;5.51;89.35;100216.70;102133;1291;138386;-60
2022/11/10 00:59:19;;;;;;;31.80;20.90;;;;;;;5.49;89.25;100213.74;102184;1290;25350;-60
2022/11/10 01:02:05;;;;;;;35.70;20.00;;;;;;;5.47;89.31;100208.56;102198;1298;22895;-60
2022/11/10 01:04:51;;;;;;;36.40;19.90;;;;;;;5.46;89.22;100209.52;102090;1298;22728;-60
2022/11/10 01:07:36;;;;;;;33.00;21.20;;;;;;;5.43;89.38;100206.07;102330;1299;22570;-60
2022/11/10 01:10:22;;;;;;;39.80;23.10;;;;;;;5.41;89.57;100203.44;102362;1289;138664;-60
2022/11/10 01:13:08;;;;;;;34.70;21.20;;;;;;;5.40;89.63;100202.56;102196;1285;25355;-61
2022/11/10 01:15:53;;;;;;;35.20;19.70;;;;;;;5.39;89.85;100204.10;102120;1294;139918;-61
2022/11/10 01:18:38;;;;;;;38.30;20.20;;;;;;;5.38;89.67;100198.86;102463;1292;22854;-61
2022/11/10 01:21:25;;;;;;;32.50;19.80;;;;;;;5.34;89.82;100195.16;102363;1310;139000;-60
2022/11/10 01:24:10;;;;;;;32.40;19.40;;;;;;;5.34;90.05;100195.08;102493;1285;22572;-61
2022/11/10 01:26:56;;;;;;;34.60;21.00;;;;;;;5.33;90.04;100188.57;102478;1295;138179;-61
2022/11/10 01:29:41;;;;;;;33.10;20.60;;;;;;;5.32;90.09;100191.89;102465;1310;23860;-61
2022/11/10 01:32:27;;;;;;;33.90;18.60;;;;;;;5.32;90.11;100191.19;102346;1288;138146;-60
2022/11/10 01:35:12;;;;;;;30.80;19.30;;;;;;;5.31;89.81;100188.86;102469;1297;26101;-61
2022/11/10 01:37:57;;;;;;;29.50;19.30;;;;;;;5.28;89.92;100189.31;102474;1301;22495;-61
2022/11/10 01:40:43;;;;;;;29.30;18.40;;;;;;;5.26;89.95;100193.63;102495;1289;22531;-61
2022/11/10 01:43:29;;;;;;;31.70;19.40;;;;;;;5.23;90.16;100197.23;102454;1295;25453;-61
2022/11/10 01:46:15;;;;;;;31.90;20.10;;;;;;;5.23;90.18;100200.89;102395;1305;141132;-61
2022/11/10 01:49:01;;;;;;;36.20;20.50;;;;;;;5.22;90.31;100201.02;102468;1308;24895;-61
2022/11/10 01:51:52;;;;;;;32.40;20.10;;;;;;;5.21;90.41;100202.39;102356;1287;138008;-61
2022/11/10 01:54:40;;;;;;;30.70;18.40;;;;;;;5.21;90.47;100205.83;102469;1295;26023;-61
2022/11/10 01:57:25;;;;;;;31.90;19.10;;;;;;;5.18;90.54;100199.58;106699;1295;137703;-62
2022/11/10 02:00:11;;;;;;;30.10;18.90;;;;;;;5.15;90.20;100195.66;106745;1287;22256;-62
2022/11/10 02:03:01;;;;;;;32.90;19.30;;;;;;;5.13;90.30;100195.27;106701;1300;139270;-61
2022/11/10 02:05:46;;;;;;;34.10;18.80;;;;;;;5.11;90.41;100199.92;106737;1285;22172;-62
2022/11/10 02:08:31;;;;;;;28.30;18.10;;;;;;;5.09;90.30;100198.67;106701;1302;139894;-61
2022/11/10 02:11:16;;;;;;;35.40;19.50;;;;;;;5.08;90.66;100203.07;106831;1303;22889;-63
2022/11/10 02:14:02;;;;;;;28.30;17.90;;;;;;;5.08;90.70;100202.20;106831;1302;22124;-63
2022/11/10 02:16:47;;;;;;;27.90;18.00;;;;;;;5.06;90.24;100200.25;106798;1303;22142;-60
2022/11/10 02:19:39;;;;;;;32.80;18.40;;;;;;;5.10;90.47;100206.98;106751;1302;22146;-60
2022/11/10 02:22:25;;;;;;;25.20;17.00;;;;;;;5.10;90.41;100206.56;106652;1288;138263;-61
2022/11/10 02:25:12;;;;;;;28.10;17.80;;;;;;;5.10;90.43;100204.78;106831;1299;22321;-60
2022/11/10 02:27:58;;;;;;;29.60;18.40;;;;;;;5.10;90.51;100210.36;106701;1300;138514;-62
2022/11/10 02:30:43;;;;;;;32.50;18.00;;;;;;;5.10;90.62;100204.23;106806;1302;22125;-62
2022/11/10 02:33:29;;;;;;;35.30;17.10;;;;;;;5.09;90.59;100204.20;106682;1303;140002;-60
2022/11/10 02:36:14;;;;;;;25.80;17.40;;;;;;;5.08;90.72;100204.03;106759;1303;22189;-60
2022/11/10 02:39:00;;;;;;;29.20;19.10;;;;;;;5.06;90.45;100209.46;106757;1295;140221;-60
2022/11/10 02:41:45;;;;;;;28.10;17.60;;;;;;;5.05;90.65;100210.61;106808;1303;22200;-61
2022/11/10 02:44:31;;;;;;;27.00;17.10;;;;;;;5.02;90.65;100214.13;106709;1296;138733;-60
2022/11/10 02:47:16;;;;;;;26.40;17.10;;;;;;;5.01;90.75;100218.08;106835;1300;22170;-60
2022/11/10 02:50:01;;;;;;;30.10;16.50;;;;;;;5.00;90.79;100214.88;106823;1302;22190;-60
2022/11/10 02:52:47;;;;;;;25.50;15.90;;;;;;;5.00;90.78;100217.20;106703;1303;138681;-60
2022/11/10 02:55:32;;;;;;;24.20;16.70;;;;;;;4.99;91.02;100211.13;106873;1303;22893;-60
2022/11/10 02:58:17;;;;;;;25.80;17.20;;;;;;;5.00;90.97;100208.89;106647;1303;138132;-61
2022/11/10 03:01:04;;;;;;;27.50;18.20;;;;;;;5.00;91.29;100209.10;106771;1303;22135;-61
2022/11/10 03:03:50;;;;;;;32.50;17.90;;;;;;;5.00;91.57;100208.64;106673;1303;138156;-60
2022/11/10 03:06:35;;;;;;;26.30;18.20;;;;;;;5.02;91.57;100208.23;106762;1303;22327;-61
2022/11/10 03:09:21;;;;;;;31.80;19.50;;;;;;;5.05;91.90;100209.14;106669;1302;139123;-61
2022/11/10 03:12:06;;;;;;;28.40;19.20;;;;;;;5.08;91.91;100201.70;106716;1300;22098;-61
2022/11/10 03:14:52;;;;;;;27.80;18.00;;;;;;;5.11;91.99;100198.52;106649;1294;138728;-61
2022/11/10 03:17:37;;;;;;;30.80;17.40;;;;;;;5.16;92.12;100195.58;106747;1303;22175;-63
2022/11/10 03:20:23;;;;;;;28.80;18.00;;;;;;;5.20;92.36;100195.73;106652;1302;138740;-60
2022/11/10 03:23:08;;;;;;;31.10;18.80;;;;;;;5.24;92.36;100198.70;106828;1287;22106;-61
2022/11/10 03:25:53;;;;;;;28.70;17.10;;;;;;;5.29;92.34;100192.88;106779;1297;22351;-61
2022/11/10 03:28:39;;;;;;;32.10;17.10;;;;;;;5.31;92.32;100185.25;106689;1305;137784;-61
2022/11/10 03:31:24;;;;;;;31.70;19.10;;;;;;;5.37;92.08;100190.04;106694;1299;22177;-61
2022/11/10 03:34:10;;;;;;;29.10;17.90;;;;;;;5.39;92.31;100188.44;106646;1297;138657;-61
2022/11/10 03:36:55;;;;;;;27.50;17.40;;;;;;;5.42;92.21;100187.52;106787;1303;22197;-61
2022/11/10 03:39:40;;;;;;;28.90;18.20;;;;;;;5.44;92.38;100187.06;106727;1303;138612;-61
2022/11/10 03:42:26;;;;;;;32.20;19.60;;;;;;;5.44;92.21;100181.08;106661;1301;22112;-61
2022/11/10 03:45:12;;;;;;;28.90;18.90;;;;;;;5.48;92.25;100176.46;106718;1302;138322;-61
2022/11/10 03:47:57;;;;;;;24.80;17.10;;;;;;;5.51;92.34;100177.85;106815;1303;22249;-61
2022/11/10 03:50:43;;;;;;;28.60;17.50;;;;;;;5.52;92.25;100181.27;106613;1303;140000;-61
2022/11/10 03:53:28;;;;;;;30.80;17.80;;;;;;;5.54;91.99;100179.57;106783;1305;22248;-61
2022/11/10 03:56:14;;;;;;;29.00;16.70;;;;;;;5.55;91.83;100174.91;106875;1302;23410;-61
2022/11/10 03:58:59;;;;;;;25.80;16.30;;;;;;;5.56;91.81;100170.02;106827;1303;22415;-61
2022/11/10 04:01:44;;;;;;;31.80;16.10;;;;;;;5.57;92.03;100168.27;106805;1300;22117;-61
2022/11/10 04:10:38;;;;;;;27.90;15.80;;;;;;;5.59;91.71;100167.89;106755;1300;139434;-61
2022/11/10 04:16:28;;;;;;;27.40;16.80;;;;;;;5.59;91.67;100177.91;106720;1303;139213;-62
2022/11/10 04:19:13;;;;;;;28.80;17.60;;;;;;;5.61;91.63;100177.16;106791;1303;22271;-61
2022/11/10 04:21:59;;;;;;;26.20;16.80;;;;;;;5.63;91.52;100180.84;106760;1303;138631;-61
2022/11/10 04:24:44;;;;;;;25.90;15.70;;;;;;;5.65;91.59;100183.55;106747;1300;22108;-61
2022/11/10 04:27:30;;;;;;;27.80;17.20;;;;;;;5.67;91.49;100181.55;106724;1300;138642;-61
2022/11/10 04:30:15;;;;;;;27.00;16.30;;;;;;;5.67;91.36;100183.54;106862;1295;22225;-61
2022/11/10 04:33:00;;;;;;;27.00;16.60;;;;;;;5.67;91.45;100180.46;106721;1303;140027;-61
2022/11/10 04:35:46;;;;;;;28.10;17.00;;;;;;;5.65;91.28;100176.93;106849;1303;22270;-61
2022/11/10 04:38:31;;;;;;;29.80;16.70;;;;;;;5.65;91.27;100179.67;106697;1302;138489;-61
2022/11/10 04:41:16;;;;;;;28.50;16.90;;;;;;;5.65;91.38;100180.71;106786;1303;22256;-61
2022/11/10 04:44:02;;;;;;;29.70;16.40;;;;;;;5.65;91.32;100177.84;106758;1295;22165;-61
2022/11/10 04:46:48;;;;;;;30.20;18.10;;;;;;;5.63;91.11;100180.14;106623;1299;137989;-61
2022/11/10 04:49:33;;;;;;;29.10;17.40;;;;;;;5.61;91.27;100182.36;106688;1303;22921;-61
2022/11/10 04:52:19;;;;;;;25.90;16.30;;;;;;;5.60;91.24;100184.65;106642;1295;138126;-61
2022/11/10 04:55:05;;;;;;;27.70;16.80;;;;;;;5.59;91.11;100186.44;106868;1303;22237;-61
2022/11/10 04:57:50;;;;;;;30.30;18.30;;;;;;;5.58;91.53;100192.26;106670;1302;140427;-61
2022/11/10 05:00:35;;;;;;;27.50;16.60;;;;;;;5.60;91.34;100189.52;106778;1295;22130;-62
2022/11/10 05:03:21;;;;;;;28.90;18.40;;;;;;;5.63;91.50;100191.08;106675;1302;140096;-61
2022/11/10 05:06:07;;;;;;;24.40;16.10;;;;;;;5.64;91.72;100193.98;104920;1303;22484;-61
2022/11/10 05:08:52;;;;;;;31.30;16.50;;;;;;;5.64;91.41;100197.60;102349;1281;139013;-60
2022/11/10 05:11:38;;;;;;;30.40;17.90;;;;;;;5.64;91.39;100207.37;102441;1295;22682;-59
2022/11/10 05:14:24;;;;;;;25.20;16.50;;;;;;;5.64;91.47;100210.98;102428;1295;22513;-60
2022/11/10 05:17:09;;;;;;;28.40;16.10;;;;;;;5.64;91.76;100213.28;102483;1294;22544;-61
2022/11/10 05:19:55;;;;;;;28.60;17.30;;;;;;;5.64;91.72;100214.48;102473;1295;24201;-61
2022/11/10 05:22:44;;;;;;;25.60;17.20;;;;;;;5.65;91.65;100215.11;102376;1289;138595;-61
2022/11/10 05:25:34;;;;;;;28.00;16.60;;;;;;;5.65;92.03;100215.73;106790;1302;22229;-62
2022/11/10 05:28:20;;;;;;;25.80;17.20;;;;;;;5.65;91.85;100216.39;106771;1291;139596;-62
2022/11/10 05:31:05;;;;;;;24.40;15.90;;;;;;;5.65;91.66;100215.85;106854;1303;22112;-61
2022/11/10 05:33:50;;;;;;;24.20;16.40;;;;;;;5.65;92.07;100216.89;106681;1289;139485;-61
2022/11/10 05:36:36;;;;;;;29.90;17.70;;;;;;;5.66;92.12;100220.02;106791;1302;22327;-61
2022/11/10 05:39:21;;;;;;;27.60;17.10;;;;;;;5.67;92.07;100222.39;106734;1297;138566;-61
2022/11/10 05:42:07;;;;;;;25.80;16.50;;;;;;;5.69;92.42;100227.42;106823;1302;22102;-61
2022/11/10 05:44:52;;;;;;;27.80;17.10;;;;;;;5.72;92.25;100230.88;106761;1301;140099;-61
2022/11/10 05:47:38;;;;;;;22.70;15.90;;;;;;;5.75;92.26;100234.42;106811;1303;22163;-61
2022/11/10 05:50:23;;;;;;;25.50;15.70;;;;;;;5.78;92.42;100240.05;106774;1303;22297;-61
2022/11/10 05:53:09;;;;;;;29.50;17.40;;;;;;;5.80;92.39;100243.21;106829;1298;22118;-61
2022/11/10 05:55:54;;;;;;;29.30;17.40;;;;;;;5.82;92.41;100243.88;106835;1302;22198;-61
2022/11/10 05:58:40;;;;;;;24.70;16.00;;;;;;;5.83;92.20;100245.89;106742;1302;139030;-61
2022/11/10 06:01:25;;;;;;;27.60;17.00;;;;;;;5.86;92.22;100245.84;106898;1302;22265;-61
2022/11/10 06:04:11;;;;;;;30.10;17.50;;;;;;;5.87;92.17;100243.60;106764;1303;139120;-61
2022/11/10 06:06:56;;;;;;;28.50;17.40;;;;;;;5.91;92.24;100250.70;106835;1302;22193;-61
2022/11/10 06:09:42;;;;;;;26.60;16.40;;;;;;;5.94;92.49;100254.02;106775;1303;139038;-61
2022/11/10 06:12:29;;;;;;;23.90;15.10;;;;;;;5.98;92.47;100250.52;106811;1303;22127;-61
2022/11/10 06:15:15;;;;;;;26.70;17.10;;;;;;;6.00;92.44;100255.93;106745;1303;139886;-61
2022/11/10 06:18:01;;;;;;;24.20;15.20;;;;;;;6.04;92.56;100258.73;106831;1303;22256;-61
2022/11/10 06:20:46;;;;;;;32.50;16.20;;;;;;;6.08;92.66;100263.23;106687;1302;138525;-61
2022/11/10 06:23:32;;;;;;;22.70;16.00;;;;;;;6.10;92.34;100263.39;106739;1303;22121;-61
2022/11/10 06:26:17;;;;;;;26.50;16.20;;;;;;;6.13;92.49;100262.86;106720;1298;22481;-61
2022/11/10 06:29:03;;;;;;;27.00;15.30;;;;;;;6.16;92.43;100268.27;106662;1303;22145;-61
2022/11/10 06:31:48;;;;;;;25.50;15.80;;;;;;;6.20;92.58;100267.67;106765;1302;22884;-61
2022/11/10 06:34:33;;;;;;;26.70;16.40;;;;;;;6.23;92.34;100268.58;106644;1293;139092;-62
2022/11/10 06:37:19;;;;;;;23.30;15.60;;;;;;;6.28;92.46;100272.15;106635;1305;22099;-62
2022/11/10 06:40:08;;;;;;;19.80;14.40;;;;;;;6.30;92.23;100270.52;106610;1305;140067;-62
2022/11/10 06:42:53;;;;;;;25.50;16.40;;;;;;;6.34;92.21;100268.27;106819;1303;22123;-61
2022/11/10 06:45:39;;;;;;;18.60;13.90;;;;;;;6.32;92.24;100263.92;106677;1288;138711;-62
2022/11/10 06:48:24;;;;;;;29.80;15.90;;;;;;;6.37;92.23;100261.29;106698;1305;22904;-62
2022/11/10 06:51:09;;;;;;;26.20;15.40;;;;;;;6.40;92.29;100262.61;106626;1297;139072;-62
2022/11/10 06:53:55;;;;;;;26.60;14.80;;;;;;;6.43;92.18;100263.24;103080;1309;22673;-61
2022/11/10 06:56:40;;;;;;;21.60;14.60;;;;;;;6.44;92.10;100267.74;102377;1292;138868;-61
2022/11/10 06:59:26;;;;;;;24.90;16.10;;;;;;;6.44;92.08;100263.23;102534;1288;22491;-62
2022/11/10 07:02:12;;;;;;;35.70;19.60;;;;;;;6.43;92.15;100261.37;102406;1301;24548;-62
2022/11/10 07:04:58;;;;;;;24.90;15.90;;;;;;;6.43;92.27;100259.33;102322;1293;139845;-64
2022/11/10 07:07:43;;;;;;;23.00;15.90;;;;;;;6.44;92.18;100261.36;102445;1303;22498;-62
2022/11/10 07:10:29;;;;;;;22.80;14.70;;;;;;;6.45;92.05;100264.74;102559;1291;138660;-61
2022/11/10 07:13:15;;;;;;;26.20;15.50;;;;;;;6.46;92.36;100267.79;102547;1287;25671;-59
2022/11/10 07:16:05;;;;;;;26.10;14.60;;;;;;;6.49;92.26;100269.11;106658;1297;138437;-61
2022/11/10 07:18:50;;;;;;;22.50;14.90;;;;;;;6.52;92.15;100268.58;106745;1287;22256;-61
2022/11/10 07:21:35;;;;;;;26.90;14.70;;;;;;;6.56;92.25;100271.45;106680;1307;138265;-61
2022/11/10 07:24:21;;;;;;;23.10;15.20;;;;;;;6.58;92.27;100270.73;106766;1303;22375;-63
2022/11/10 07:27:07;;;;;;;24.10;15.50;;;;;;;6.60;92.32;100272.64;106629;1303;140262;-62
2022/11/10 07:29:52;;;;;;;24.70;16.10;;;;;;;6.65;92.12;100277.39;106752;1285;22145;-62
2022/11/10 07:32:37;;;;;;;22.20;15.40;;;;;;;6.69;92.14;100275.19;106635;1297;138907;-60
2022/11/10 07:35:22;;;;;;;22.80;15.60;;;;;;;6.72;92.14;100273.89;106674;1291;22605;-61
2022/11/10 07:38:09;;;;;;;28.20;15.40;;;;;;;6.76;92.19;100271.71;106746;1288;22147;-61
2022/11/10 07:40:55;;;;;;;29.60;16.10;;;;;;;6.80;92.12;100271.17;106624;1296;138250;-61
2022/11/10 07:43:40;;;;;;;28.40;15.80;;;;;;;6.83;92.17;100270.91;106783;1308;22131;-61
2022/11/10 07:46:26;;;;;;;25.00;14.60;;;;;;;6.83;92.13;100266.50;106680;1301;140300;-60
2022/11/10 07:49:15;;;;;;;24.30;15.00;;;;;;;6.91;92.12;100279.02;106697;1304;22215;-60
2022/11/10 07:52:00;;;;;;;21.20;14.40;;;;;;;6.96;92.19;100275.94;106607;1303;138585;-60
2022/11/10 07:54:46;;;;;;;21.00;15.20;;;;;;;7.01;92.03;100277.67;106739;1298;22144;-60
2022/11/10 07:57:32;;;;;;;25.30;16.00;;;;;;;7.07;92.02;100278.27;106692;1302;138758;-62
2022/11/10 08:00:17;;;;;;;31.60;17.80;;;;;;;7.14;91.91;100277.14;106747;1302;22280;-61
2022/11/10 08:03:10;;;;;;;27.70;16.90;;;;;;;7.20;91.91;100279.09;106575;1302;138512;-61
2022/11/10 08:05:55;;;;;;;26.60;15.00;;;;;;;7.21;91.84;100274.89;106650;1303;22150;-61
2022/11/10 08:08:41;;;;;;;23.80;15.50;;;;;;;7.29;91.66;100285.10;106665;1303;139843;-60
2022/11/10 08:11:26;;;;;;;24.90;16.50;;;;;;;7.34;91.63;100280.45;106692;1305;22162;-61
2022/11/10 08:14:12;;;;;;;23.10;14.00;;;;;;;7.38;91.44;100279.23;106856;1303;23306;-61
2022/11/10 08:16:57;;;;;;;22.30;14.20;;;;;;;7.42;91.11;100283.39;106649;1303;138575;-61
2022/11/10 08:19:42;;;;;;;24.80;14.80;;;;;;;7.45;90.94;100288.42;106773;1293;22171;-61
2022/11/10 08:22:28;;;;;;;25.90;15.70;;;;;;;7.47;90.82;100289.58;106597;1303;138683;-61
2022/11/10 08:25:13;;;;;;;24.00;14.40;;;;;;;7.49;90.64;100289.32;106751;1303;22264;-61
2022/11/10 08:28:00;;;;;;;23.80;15.30;;;;;;;7.50;90.55;100290.53;106665;1302;138442;-62
2022/11/10 08:30:46;;;;;;;27.90;15.70;;;;;;;7.52;90.59;100293.23;106790;1303;22124;-61
2022/11/10 08:33:31;;;;;;;22.50;15.40;;;;;;;7.54;90.32;100294.89;106692;1301;138443;-61
2022/11/10 08:36:17;;;;;;;22.20;14.10;;;;;;;7.51;90.30;100287.48;106711;1293;22122;-61
2022/11/10 08:39:02;;;;;;;21.40;14.60;;;;;;;7.56;90.25;100292.46;106650;1300;139114;-62
2022/11/10 08:41:48;;;;;;;27.40;15.50;;;;;;;7.58;90.27;100296.22;106637;1303;22836;-60
2022/11/10 08:44:33;;;;;;;22.20;14.30;;;;;;;7.57;90.00;100293.71;106739;1303;22248;-61
2022/11/10 08:47:19;;;;;;;20.50;15.00;;;;;;;7.59;90.20;100292.04;106730;1303;22130;-60
2022/11/10 08:50:05;;;;;;;21.10;15.10;;;;;;;7.62;90.20;100293.89;106778;1302;22859;-60
2022/11/10 08:52:51;;;;;;;20.10;14.60;;;;;;;7.64;90.19;100297.41;106721;1279;138648;-60
2022/11/10 08:55:36;;;;;;;26.50;15.80;;;;;;;7.65;90.18;100297.44;106793;1302;22121;-60
2022/11/10 08:58:22;;;;;;;22.70;15.20;;;;;;;7.68;90.18;100297.55;106654;1293;138782;-60
2022/11/10 09:01:08;;;;;;;26.80;16.00;;;;;;;7.72;90.19;100291.93;106808;1303;22123;-61
2022/11/10 09:03:54;;;;;;;23.00;15.40;;;;;;;7.76;90.23;100287.20;106658;1302;139837;-61
2022/11/10 09:06:39;;;;;;;27.00;16.50;;;;;;;7.79;90.38;100283.11;106804;1287;22189;-61
2022/11/10 09:09:25;;;;;;;26.60;16.80;;;;;;;7.82;90.26;100285.80;106621;1298;139053;-61
2022/11/10 09:12:10;;;;;;;26.20;15.50;;;;;;;7.83;90.22;100282.91;106697;1303;22422;-61
2022/11/10 09:14:55;;;;;;;37.20;17.00;;;;;;;7.85;90.18;100288.27;106621;1292;139259;-61
2022/11/10 09:17:41;;;;;;;24.90;17.40;;;;;;;7.86;90.22;100288.60;102454;1292;22519;-61
2022/11/10 09:20:27;;;;;;;25.00;16.20;;;;;;;7.87;90.13;100287.34;102423;1289;22573;-60
2022/11/10 09:23:17;;;;;;;37.20;21.90;;;;;;;7.89;90.16;100287.05;102417;1309;22495;-61
2022/11/10 09:26:06;;;;;;;26.00;17.20;;;;;;;7.88;90.15;100289.22;106746;1301;22232;-62
2022/11/10 09:28:51;;;;;;;27.70;16.40;;;;;;;7.88;90.27;100289.77;106661;1303;138968;-63
2022/11/10 09:31:37;;;;;;;23.20;16.30;;;;;;;7.89;90.35;100290.01;106806;1287;22366;-62
2022/11/10 09:34:22;;;;;;;31.40;18.00;;;;;;;7.91;90.31;100291.95;106575;1294;139455;-61
2022/11/10 09:37:08;;;;;;;27.00;17.00;;;;;;;7.87;90.24;100282.52;106651;1293;147106;-61
2022/11/10 09:41:07;;;;;;;27.00;16.20;;;;;;;7.94;90.29;100290.02;99697;1330;545198;-61
2022/11/10 09:44:00;;;;;;;26.10;18.10;;;;;;;7.93;90.26;100288.56;106052;1313;22597;-61
2022/11/10 09:46:56;;;;;;;27.70;17.70;;;;;;;7.93;90.31;100286.67;105778;1303;137944;-62
2022/11/10 09:49:45;;;;;;;108.70;66.10;;;;;;;7.93;90.41;100286.39;105852;1313;22154;-61
2022/11/10 09:52:32;;;;;;;48.10;25.20;;;;;;;7.93;90.69;100284.50;105746;1308;137880;-62
2022/11/10 09:55:56;;;;;;;49.80;25.10;;;;;;;7.94;90.74;100284.52;105924;1310;136125;-62
2022/11/10 09:58:42;;;;;;;29.20;18.10;;;;;;;7.94;90.77;100279.84;105997;1301;138242;-61
2022/11/10 10:01:49;;;;;;;31.90;18.70;;;;;;;7.91;90.76;100279.10;106341;1294;22861;-62
2022/11/10 10:05:03;;;;;;;29.70;17.50;;;;;;;7.90;91.05;100277.73;105972;1313;138605;-62
2022/11/10 10:08:13;;;;;;;27.60;18.40;;;;;;;7.93;91.24;100278.25;106083;1309;22210;-62
2022/11/10 10:11:13;;;;;;;29.80;18.00;;;;;;;7.94;91.40;100274.75;105972;1298;138025;-62
2022/11/10 10:14:05;;;;;;;27.10;16.40;;;;;;;7.96;91.52;100277.36;106115;1296;22128;-62
2022/11/10 10:17:09;;;;;;;28.30;17.70;;;;;;;7.98;91.64;100281.02;105944;1305;139146;-62
2022/11/10 10:19:59;;;;;;;42.00;20.80;;;;;;;7.99;91.61;100281.11;105989;1316;22149;-62
2022/11/10 10:22:54;;;;;;;30.50;17.60;;;;;;;7.97;91.70;100275.23;105714;1288;138020;-62
2022/11/10 10:25:39;;;;;;;27.30;16.70;;;;;;;8.02;91.65;100280.66;106000;1297;22662;-62
2022/11/10 10:28:32;;;;;;;27.70;17.70;;;;;;;8.03;91.72;100279.77;105928;1313;138520;-62
2022/11/10 10:31:23;;;;;;;30.60;18.00;;;;;;;8.05;91.69;100282.43;106017;1296;22158;-61
2022/11/10 10:34:11;;;;;;;33.60;18.60;;;;;;;8.04;91.71;100283.45;106715;1303;139979;-62
2022/11/10 10:36:56;;;;;;;;;;;;;;;8.03;91.74;100280.36;106827;1294;22321;-62
2022/11/10 10:39:43;;;;;;;39.90;18.80;;;;;;;8.03;91.89;100282.33;106789;1286;124107;-62
2022/11/10 10:42:33;;;;;;;34.90;18.30;;;;;;;8.02;91.96;100281.25;106758;1301;22125;-62
2022/11/10 10:45:27;;;;;;;35.40;20.10;;;;;;;8.01;91.99;100278.88;106702;1302;138339;-62
2022/11/10 10:48:27;;;;;;;35.00;18.80;;;;;;;8.00;92.00;100278.05;106921;1292;22240;-62
2022/11/10 10:51:27;;;;;;;30.40;19.20;;;;;;;8.01;92.22;100280.71;106835;1288;138158;-62
2022/11/10 10:54:22;;;;;;;36.20;20.40;;;;;;;8.02;92.18;100278.37;106793;1303;22902;-62
2022/11/10 10:57:24;;;;;;;38.90;20.70;;;;;;;8.04;92.36;100279.27;106729;1302;138209;-62
2022/11/10 11:00:22;;;;;;;38.70;19.60;;;;;;;8.06;92.39;100278.63;106802;1295;22226;-62
2022/11/10 11:03:13;;;;;;;31.70;19.20;;;;;;;8.06;92.35;100284.68;106670;1287;138029;-62
2022/11/10 11:06:00;;;;;;;193.70;111.40;;;;;;;8.06;92.45;100285.94;106725;1305;22314;-62
2022/11/10 11:08:58;;;;;;;46.00;24.20;;;;;;;8.05;92.50;100289.08;106814;1302;23144;-61
2022/11/10 11:11:45;;;;;;;32.20;20.10;;;;;;;8.06;92.48;100290.45;106867;1295;23258;-61
2022/11/10 11:14:30;;;;;;;37.70;19.80;;;;;;;8.05;92.37;100289.95;106825;1293;22287;-61
2022/11/10 11:17:20;;;;;;;32.20;19.50;;;;;;;8.05;92.39;100290.71;106737;1299;137750;-61
2022/11/10 11:20:12;;;;;;;32.00;19.00;;;;;;;8.01;92.30;100287.98;106852;1303;22241;-61
2022/11/10 11:23:10;;;;;;;30.20;18.80;;;;;;;8.05;92.32;100299.18;106647;1303;139262;-61
2022/11/10 11:25:59;;;;;;;29.00;17.40;;;;;;;8.04;92.22;100300.98;106769;1302;22152;-62
2022/11/10 11:29:12;;;;;;;29.00;17.30;;;;;;;8.03;92.10;100299.77;106674;1294;137882;-61
2022/11/10 11:32:28;;;;;;;26.70;18.00;;;;;;;8.03;92.07;100302.08;106801;1302;22298;-61
2022/11/10 11:35:18;;;;;;;27.80;18.00;;;;;;;8.00;92.05;100299.21;106727;1303;138842;-61
2022/11/10 11:38:10;;;;;;;29.80;19.40;;;;;;;7.98;91.98;100299.40;106775;1298;22123;-61
2022/11/10 11:41:15;;;;;;;32.70;19.80;;;;;;;7.95;91.94;100304.02;106742;1303;137915;-61
2022/11/10 11:44:00;;;;;;;33.60;18.60;;;;;;;7.91;92.09;100298.85;106861;1295;22186;-61
2022/11/10 11:47:08;;;;;;;30.00;19.20;;;;;;;7.85;92.10;100300.81;106495;1301;138046;-60
2022/11/10 11:50:18;;;;;;;31.40;20.00;;;;;;;7.85;92.28;100302.05;106831;1303;22977;-61
2022/11/10 11:53:36;;;;;;;107.60;65.70;;;;;;;7.83;92.43;100298.48;106797;1303;139367;-61
2022/11/10 11:56:29;;;;;;;54.00;31.20;;;;;;;7.83;92.68;100299.40;106834;1302;22238;-62
2022/11/10 11:59:19;;;;;;;44.10;26.10;;;;;;;7.81;92.77;100292.82;106783;1287;141872;-62
2022/11/10 12:02:27;;;;;;;38.30;23.40;;;;;;;7.86;92.86;100295.58;106947;1292;22200;-62
2022/11/10 12:05:42;;;;;;;38.20;24.30;;;;;;;7.85;92.81;100288.70;106648;1303;139176;-62
2022/11/10 12:09:02;;;;;;;32.70;21.30;;;;;;;7.82;93.04;100287.70;106756;1302;22239;-61
2022/11/10 12:12:22;;;;;;;33.80;21.30;;;;;;;7.80;93.23;100286.35;106846;1303;22263;-62
2022/11/10 12:15:20;;;;;;;;;;;;;;;7.80;93.24;100284.10;106690;1289;138266;-61
2022/11/10 12:18:29;;;;;;;32.00;19.80;;;;;;;7.80;93.48;100284.43;106833;1288;22227;-62
2022/11/10 12:21:20;;;;;;;41.80;23.40;;;;;;;7.77;93.66;100286.82;106833;1303;138226;-62
2022/11/10 12:24:33;;;;;;;41.90;24.10;;;;;;;7.75;93.70;100289.12;106800;1296;22169;-61
2022/11/10 12:27:27;;;;;;;39.20;23.30;;;;;;;7.72;93.89;100285.92;106640;1296;140195;-62
2022/11/10 12:30:14;;;;;;;35.70;21.20;;;;;;;7.77;93.96;100291.03;106768;1296;22104;-62
2022/11/10 12:33:03;;;;;;;33.90;22.00;;;;;;;7.77;94.12;100291.91;106707;1287;138467;-60
2022/11/10 12:35:48;;;;;;;30.30;19.80;;;;;;;7.78;94.25;100288.14;106645;1291;22143;-61
2022/11/10 12:38:40;;;;;;;31.20;19.00;;;;;;;7.79;94.24;100290.60;106656;1284;22181;-62
2022/11/10 12:41:42;;;;;;;26.80;18.40;;;;;;;7.77;94.24;100292.48;106715;1302;22317;-61
2022/11/10 12:44:31;;;;;;;26.80;19.10;;;;;;;7.74;94.36;100286.75;106764;1302;22231;-61
2022/11/10 12:47:18;;;;;;;28.70;18.00;;;;;;;7.79;94.44;100290.91;106515;1288;138538;-61
2022/11/10 12:50:15;;;;;;;29.20;18.30;;;;;;;7.78;94.44;100288.89;106638;1302;22114;-62
2022/11/10 12:53:04;;;;;;;35.60;20.30;;;;;;;7.78;94.52;100286.72;106679;1294;138340;-61
2022/11/10 12:56:01;;;;;;;38.00;18.70;;;;;;;7.78;94.46;100290.52;106747;1303;22180;-61